sensor_id;sensor_type;location;lat;lon;timestamp;P1;durP1;ratioP1;P2;durP2;ratioP2
55314;SDS011;41619;42.816;23.226;2023-03-20T00:00:24;46.90;;;22.85;;
55314;SDS011;41619;42.816;23.226;2023-03-20T00:02:55;46.97;;;21.55;;
55314;SDS011;41619;42.816;23.226;2023-03-20T00:05:22;49.85;;;21.45;;
55314;SDS011;41619;42.816;23.226;2023-03-20T00:07:49;50.33;;;21.27;;
55314;SDS011;41619;42.816;23.226;2023-03-20T00:10:16;52.95;;;21.73;;
55314;SDS011;41619;42.816;23.226;2023-03-20T00:12:42;52.53;;;22.83;;
55314;SDS011;41619;42.816;23.226;2023-03-20T00:17:48;47.55;;;21.85;;
55314;SDS011;41619;42.816;23.226;2023-03-20T00:20:13;51.67;;;23.10;;
55314;SDS011;41619;42.816;23.226;2023-03-20T00:22:40;50.47;;;25.25;;
55314;SDS011;41619;42.816;23.226;2023-03-20T00:25:05;55.45;;;27.30;;
55314;SDS011;41619;42.816;23.226;2023-03-20T00:27:31;58.20;;;29.73;;
55314;SDS011;41619;42.816;23.226;2023-03-20T00:29:57;59.50;;;29.08;;
55314;SDS011;41619;42.816;23.226;2023-03-20T00:32:22;59.40;;;26.80;;
55314;SDS011;41619;42.816;23.226;2023-03-20T00:34:48;48.15;;;24.52;;
55314;SDS011;41619;42.816;23.226;2023-03-20T00:37:14;56.50;;;22.02;;
55314;SDS011;41619;42.816;23.226;2023-03-20T00:39:39;45.78;;;21.25;;
55314;SDS011;41619;42.816;23.226;2023-03-20T00:42:05;46.33;;;21.17;;
55314;SDS011;41619;42.816;23.226;2023-03-20T00:44:35;44.75;;;22.08;;
55314;SDS011;41619;42.816;23.226;2023-03-20T00:47:05;47.33;;;22.42;;
55314;SDS011;41619;42.816;23.226;2023-03-20T00:49:43;41.85;;;20.95;;
55314;SDS011;41619;42.816;23.226;2023-03-20T00:52:17;43.60;;;22.55;;
55314;SDS011;41619;42.816;23.226;2023-03-20T00:54:43;54.22;;;23.70;;
55314;SDS011;41619;42.816;23.226;2023-03-20T00:59:52;39.40;;;18.52;;
55314;SDS011;41619;42.816;23.226;2023-03-20T01:02:22;39.67;;;18.95;;
55314;SDS011;41619;42.816;23.226;2023-03-20T01:04:50;40.63;;;18.80;;
55314;SDS011;41619;42.816;23.226;2023-03-20T01:07:16;41.72;;;17.52;;
55314;SDS011;41619;42.816;23.226;2023-03-20T01:09:42;38.80;;;17.45;;
55314;SDS011;41619;42.816;23.226;2023-03-20T01:12:09;47.58;;;19.30;;
55314;SDS011;41619;42.816;23.226;2023-03-20T01:14:36;43.65;;;19.88;;
55314;SDS011;41619;42.816;23.226;2023-03-20T01:17:01;38.67;;;16.90;;
55314;SDS011;41619;42.816;23.226;2023-03-20T01:19:27;37.05;;;16.50;;
55314;SDS011;41619;42.816;23.226;2023-03-20T01:21:52;34.85;;;16.48;;
55314;SDS011;41619;42.816;23.226;2023-03-20T01:24:18;43.70;;;17.42;;
55314;SDS011;41619;42.816;23.226;2023-03-20T01:26:43;37.47;;;16.55;;
55314;SDS011;41619;42.816;23.226;2023-03-20T01:29:23;41.83;;;18.88;;
55314;SDS011;41619;42.816;23.226;2023-03-20T01:31:51;50.25;;;20.77;;
55314;SDS011;41619;42.816;23.226;2023-03-20T01:34:17;36.85;;;16.58;;
55314;SDS011;41619;42.816;23.226;2023-03-20T01:36:44;34.65;;;14.75;;
55314;SDS011;41619;42.816;23.226;2023-03-20T01:39:14;37.42;;;15.20;;
55314;SDS011;41619;42.816;23.226;2023-03-20T01:41:39;29.88;;;14.63;;
55314;SDS011;41619;42.816;23.226;2023-03-20T01:44:12;31.13;;;15.20;;
55314;SDS011;41619;42.816;23.226;2023-03-20T01:46:43;28.92;;;14.77;;
55314;SDS011;41619;42.816;23.226;2023-03-20T01:51:43;30.15;;;15.13;;
55314;SDS011;41619;42.816;23.226;2023-03-20T01:54:11;29.00;;;13.63;;
55314;SDS011;41619;42.816;23.226;2023-03-20T01:57:03;34.65;;;14.68;;
55314;SDS011;41619;42.816;23.226;2023-03-20T01:59:35;32.60;;;14.50;;
55314;SDS011;41619;42.816;23.226;2023-03-20T02:02:06;40.60;;;18.50;;
55314;SDS011;41619;42.816;23.226;2023-03-20T02:04:34;45.22;;;19.67;;
55314;SDS011;41619;42.816;23.226;2023-03-20T02:07:02;41.50;;;19.80;;
55314;SDS011;41619;42.816;23.226;2023-03-20T02:09:31;49.03;;;22.10;;
55314;SDS011;41619;42.816;23.226;2023-03-20T02:11:56;44.53;;;21.77;;
55314;SDS011;41619;42.816;23.226;2023-03-20T02:14:23;46.40;;;22.10;;
55314;SDS011;41619;42.816;23.226;2023-03-20T02:16:48;42.53;;;18.58;;
55314;SDS011;41619;42.816;23.226;2023-03-20T02:24:53;41.72;;;19.40;;
55314;SDS011;41619;42.816;23.226;2023-03-20T02:33:24;35.42;;;17.85;;
55314;SDS011;41619;42.816;23.226;2023-03-20T02:47:12;35.97;;;16.77;;
55314;SDS011;41619;42.816;23.226;2023-03-20T02:50:07;73.53;;;32.35;;
55314;SDS011;41619;42.816;23.226;2023-03-20T03:03:20;42.70;;;16.52;;
55314;SDS011;41619;42.816;23.226;2023-03-20T03:05:48;35.40;;;15.30;;
55314;SDS011;41619;42.816;23.226;2023-03-20T03:08:20;32.70;;;15.82;;
55314;SDS011;41619;42.816;23.226;2023-03-20T03:10:50;34.72;;;15.10;;
55314;SDS011;41619;42.816;23.226;2023-03-20T03:13:20;32.17;;;15.00;;
55314;SDS011;41619;42.816;23.226;2023-03-20T03:15:51;36.15;;;16.10;;
55314;SDS011;41619;42.816;23.226;2023-03-20T03:18:20;49.13;;;19.42;;
55314;SDS011;41619;42.816;23.226;2023-03-20T03:20:49;77.82;;;32.40;;
55314;SDS011;41619;42.816;23.226;2023-03-20T03:23:30;37.05;;;18.23;;
55314;SDS011;41619;42.816;23.226;2023-03-20T03:25:59;44.33;;;18.80;;
55314;SDS011;41619;42.816;23.226;2023-03-20T03:28:29;44.95;;;19.60;;
55314;SDS011;41619;42.816;23.226;2023-03-20T03:31:06;36.85;;;19.08;;
55314;SDS011;41619;42.816;23.226;2023-03-20T03:33:37;35.67;;;15.77;;
55314;SDS011;41619;42.816;23.226;2023-03-20T03:41:38;28.73;;;14.65;;
55314;SDS011;41619;42.816;23.226;2023-03-20T03:46:52;29.75;;;14.32;;
55314;SDS011;41619;42.816;23.226;2023-03-20T03:49:19;48.63;;;18.55;;
55314;SDS011;41619;42.816;23.226;2023-03-20T03:51:49;53.78;;;25.27;;
55314;SDS011;41619;42.816;23.226;2023-03-20T03:54:18;89.55;;;44.63;;
55314;SDS011;41619;42.816;23.226;2023-03-20T03:56:47;68.20;;;34.10;;
55314;SDS011;41619;42.816;23.226;2023-03-20T03:59:19;64.30;;;27.92;;
55314;SDS011;41619;42.816;23.226;2023-03-20T04:01:54;58.90;;;27.50;;
55314;SDS011;41619;42.816;23.226;2023-03-20T04:04:21;57.10;;;27.25;;
55314;SDS011;41619;42.816;23.226;2023-03-20T04:06:50;58.03;;;26.65;;
55314;SDS011;41619;42.816;23.226;2023-03-20T04:09:15;69.45;;;31.48;;
55314;SDS011;41619;42.816;23.226;2023-03-20T04:11:41;63.40;;;28.75;;
55314;SDS011;41619;42.816;23.226;2023-03-20T04:14:07;56.63;;;27.20;;
55314;SDS011;41619;42.816;23.226;2023-03-20T04:16:32;34.83;;;17.45;;
55314;SDS011;41619;42.816;23.226;2023-03-20T04:18:58;48.15;;;20.45;;
55314;SDS011;41619;42.816;23.226;2023-03-20T04:21:23;53.05;;;25.67;;
55314;SDS011;41619;42.816;23.226;2023-03-20T04:23:49;67.88;;;30.17;;
55314;SDS011;41619;42.816;23.226;2023-03-20T04:26:14;62.65;;;26.88;;
55314;SDS011;41619;42.816;23.226;2023-03-20T04:28:40;58.75;;;26.48;;
55314;SDS011;41619;42.816;23.226;2023-03-20T04:31:05;66.55;;;25.60;;
55314;SDS011;41619;42.816;23.226;2023-03-20T04:33:31;69.85;;;26.73;;
55314;SDS011;41619;42.816;23.226;2023-03-20T04:35:56;42.28;;;23.13;;
55314;SDS011;41619;42.816;23.226;2023-03-20T04:38:22;40.65;;;21.42;;
55314;SDS011;41619;42.816;23.226;2023-03-20T04:40:48;39.58;;;18.90;;
55314;SDS011;41619;42.816;23.226;2023-03-20T04:43:13;42.92;;;19.42;;
55314;SDS011;41619;42.816;23.226;2023-03-20T04:45:40;43.50;;;19.33;;
55314;SDS011;41619;42.816;23.226;2023-03-20T04:48:06;44.72;;;19.73;;
55314;SDS011;41619;42.816;23.226;2023-03-20T04:50:31;37.47;;;16.30;;
55314;SDS011;41619;42.816;23.226;2023-03-20T04:52:57;32.38;;;15.93;;
55314;SDS011;41619;42.816;23.226;2023-03-20T04:55:22;30.17;;;15.38;;
55314;SDS011;41619;42.816;23.226;2023-03-20T04:57:48;46.05;;;17.67;;
55314;SDS011;41619;42.816;23.226;2023-03-20T05:00:14;59.70;;;20.33;;
55314;SDS011;41619;42.816;23.226;2023-03-20T05:02:40;56.92;;;20.42;;
55314;SDS011;41619;42.816;23.226;2023-03-20T05:05:06;41.58;;;16.48;;
55314;SDS011;41619;42.816;23.226;2023-03-20T05:07:31;40.15;;;18.15;;
55314;SDS011;41619;42.816;23.226;2023-03-20T05:09:57;46.08;;;20.00;;
55314;SDS011;41619;42.816;23.226;2023-03-20T05:12:23;64.63;;;23.63;;
55314;SDS011;41619;42.816;23.226;2023-03-20T05:14:49;86.55;;;37.80;;
55314;SDS011;41619;42.816;23.226;2023-03-20T05:17:14;116.90;;;48.95;;
55314;SDS011;41619;42.816;23.226;2023-03-20T05:19:42;272.73;;;105.22;;
55314;SDS011;41619;42.816;23.226;2023-03-20T05:22:08;138.45;;;58.50;;
55314;SDS011;41619;42.816;23.226;2023-03-20T05:24:34;76.28;;;35.17;;
55314;SDS011;41619;42.816;23.226;2023-03-20T05:26:59;130.98;;;53.42;;
55314;SDS011;41619;42.816;23.226;2023-03-20T05:29:25;59.72;;;26.92;;
55314;SDS011;41619;42.816;23.226;2023-03-20T05:31:50;54.63;;;31.08;;
55314;SDS011;41619;42.816;23.226;2023-03-20T05:34:16;67.90;;;32.22;;
55314;SDS011;41619;42.816;23.226;2023-03-20T05:36:41;96.47;;;43.35;;
55314;SDS011;41619;42.816;23.226;2023-03-20T05:39:06;104.22;;;43.88;;
55314;SDS011;41619;42.816;23.226;2023-03-20T05:41:32;92.53;;;41.78;;
55314;SDS011;41619;42.816;23.226;2023-03-20T05:43:57;93.65;;;40.65;;
55314;SDS011;41619;42.816;23.226;2023-03-20T05:46:22;71.68;;;32.80;;
55314;SDS011;41619;42.816;23.226;2023-03-20T05:48:48;69.72;;;31.88;;
55314;SDS011;41619;42.816;23.226;2023-03-20T05:51:13;80.90;;;33.70;;
55314;SDS011;41619;42.816;23.226;2023-03-20T05:53:39;75.65;;;33.42;;
55314;SDS011;41619;42.816;23.226;2023-03-20T05:56:04;74.85;;;32.42;;
55314;SDS011;41619;42.816;23.226;2023-03-20T05:58:30;76.03;;;31.50;;
55314;SDS011;41619;42.816;23.226;2023-03-20T06:00:56;78.65;;;33.75;;
55314;SDS011;41619;42.816;23.226;2023-03-20T06:03:22;88.50;;;41.28;;
55314;SDS011;41619;42.816;23.226;2023-03-20T06:05:47;120.05;;;47.80;;
55314;SDS011;41619;42.816;23.226;2023-03-20T06:08:12;124.82;;;44.33;;
55314;SDS011;41619;42.816;23.226;2023-03-20T06:10:39;100.68;;;40.33;;
55314;SDS011;41619;42.816;23.226;2023-03-20T06:13:05;170.90;;;59.05;;
55314;SDS011;41619;42.816;23.226;2023-03-20T06:15:30;146.90;;;52.33;;
55314;SDS011;41619;42.816;23.226;2023-03-20T06:17:55;76.70;;;35.25;;
55314;SDS011;41619;42.816;23.226;2023-03-20T06:20:21;79.88;;;29.13;;
55314;SDS011;41619;42.816;23.226;2023-03-20T06:22:47;59.03;;;27.25;;
55314;SDS011;41619;42.816;23.226;2023-03-20T06:25:12;41.38;;;23.42;;
55314;SDS011;41619;42.816;23.226;2023-03-20T06:27:38;46.67;;;22.85;;
55314;SDS011;41619;42.816;23.226;2023-03-20T06:30:03;45.50;;;21.95;;
55314;SDS011;41619;42.816;23.226;2023-03-20T06:32:30;39.67;;;20.25;;
55314;SDS011;41619;42.816;23.226;2023-03-20T06:34:56;35.42;;;19.15;;
55314;SDS011;41619;42.816;23.226;2023-03-20T06:37:21;32.33;;;17.30;;
55314;SDS011;41619;42.816;23.226;2023-03-20T06:39:47;40.88;;;18.00;;
55314;SDS011;41619;42.816;23.226;2023-03-20T06:42:12;32.38;;;17.90;;
55314;SDS011;41619;42.816;23.226;2023-03-20T06:44:38;29.85;;;16.50;;
55314;SDS011;41619;42.816;23.226;2023-03-20T06:47:04;27.85;;;14.77;;
55314;SDS011;41619;42.816;23.226;2023-03-20T06:49:29;47.03;;;23.13;;
55314;SDS011;41619;42.816;23.226;2023-03-20T06:51:55;33.22;;;15.63;;
55314;SDS011;41619;42.816;23.226;2023-03-20T06:54:20;29.67;;;15.73;;
55314;SDS011;41619;42.816;23.226;2023-03-20T06:56:46;34.13;;;15.65;;
55314;SDS011;41619;42.816;23.226;2023-03-20T06:59:11;28.60;;;13.40;;
55314;SDS011;41619;42.816;23.226;2023-03-20T07:01:37;26.40;;;13.00;;
55314;SDS011;41619;42.816;23.226;2023-03-20T07:04:02;19.75;;;11.18;;
55314;SDS011;41619;42.816;23.226;2023-03-20T07:06:28;20.73;;;12.18;;
55314;SDS011;41619;42.816;23.226;2023-03-20T07:08:54;21.80;;;11.27;;
55314;SDS011;41619;42.816;23.226;2023-03-20T07:11:19;26.92;;;12.43;;
55314;SDS011;41619;42.816;23.226;2023-03-20T07:13:46;26.75;;;14.48;;
55314;SDS011;41619;42.816;23.226;2023-03-20T07:16:12;19.20;;;11.88;;
55314;SDS011;41619;42.816;23.226;2023-03-20T07:18:37;29.55;;;13.20;;
55314;SDS011;41619;42.816;23.226;2023-03-20T07:21:03;22.95;;;11.80;;
55314;SDS011;41619;42.816;23.226;2023-03-20T07:23:30;22.85;;;12.27;;
55314;SDS011;41619;42.816;23.226;2023-03-20T07:25:56;26.80;;;12.70;;
55314;SDS011;41619;42.816;23.226;2023-03-20T07:28:22;26.40;;;13.82;;
55314;SDS011;41619;42.816;23.226;2023-03-20T07:30:48;23.38;;;12.80;;
55314;SDS011;41619;42.816;23.226;2023-03-20T07:33:13;22.00;;;13.35;;
55314;SDS011;41619;42.816;23.226;2023-03-20T07:35:39;20.08;;;12.68;;
55314;SDS011;41619;42.816;23.226;2023-03-20T07:38:05;24.85;;;12.68;;
55314;SDS011;41619;42.816;23.226;2023-03-20T07:40:31;21.88;;;12.02;;
55314;SDS011;41619;42.816;23.226;2023-03-20T07:42:57;20.35;;;11.40;;
55314;SDS011;41619;42.816;23.226;2023-03-20T07:45:22;37.42;;;18.55;;
55314;SDS011;41619;42.816;23.226;2023-03-20T07:47:48;36.22;;;18.88;;
55314;SDS011;41619;42.816;23.226;2023-03-20T07:50:13;38.67;;;16.58;;
55314;SDS011;41619;42.816;23.226;2023-03-20T07:52:39;22.48;;;13.40;;
55314;SDS011;41619;42.816;23.226;2023-03-20T07:55:05;26.92;;;13.45;;
55314;SDS011;41619;42.816;23.226;2023-03-20T07:57:31;32.47;;;16.55;;
55314;SDS011;41619;42.816;23.226;2023-03-20T07:59:57;20.85;;;13.93;;
55314;SDS011;41619;42.816;23.226;2023-03-20T08:02:22;32.20;;;15.95;;
55314;SDS011;41619;42.816;23.226;2023-03-20T08:04:47;18.92;;;12.25;;
55314;SDS011;41619;42.816;23.226;2023-03-20T08:07:13;29.17;;;11.82;;
55314;SDS011;41619;42.816;23.226;2023-03-20T08:09:38;18.83;;;12.50;;
55314;SDS011;41619;42.816;23.226;2023-03-20T08:12:04;22.83;;;13.00;;
55314;SDS011;41619;42.816;23.226;2023-03-20T08:14:30;23.88;;;14.07;;
55314;SDS011;41619;42.816;23.226;2023-03-20T08:16:56;34.55;;;19.10;;
55314;SDS011;41619;42.816;23.226;2023-03-20T08:19:22;22.25;;;11.82;;
55314;SDS011;41619;42.816;23.226;2023-03-20T08:21:47;21.25;;;12.10;;
55314;SDS011;41619;42.816;23.226;2023-03-20T08:24:13;20.30;;;11.10;;
55314;SDS011;41619;42.816;23.226;2023-03-20T08:26:39;20.25;;;11.02;;
55314;SDS011;41619;42.816;23.226;2023-03-20T08:29:05;18.60;;;10.82;;
55314;SDS011;41619;42.816;23.226;2023-03-20T08:31:31;21.90;;;11.02;;
55314;SDS011;41619;42.816;23.226;2023-03-20T08:33:57;19.05;;;10.80;;
55314;SDS011;41619;42.816;23.226;2023-03-20T08:36:22;18.88;;;11.13;;
55314;SDS011;41619;42.816;23.226;2023-03-20T08:38:48;31.77;;;15.80;;
55314;SDS011;41619;42.816;23.226;2023-03-20T08:41:14;29.25;;;18.52;;
55314;SDS011;41619;42.816;23.226;2023-03-20T08:43:40;50.72;;;30.42;;
55314;SDS011;41619;42.816;23.226;2023-03-20T08:46:05;23.08;;;15.32;;
55314;SDS011;41619;42.816;23.226;2023-03-20T08:48:37;19.70;;;11.23;;
55314;SDS011;41619;42.816;23.226;2023-03-20T08:51:02;24.65;;;10.68;;
55314;SDS011;41619;42.816;23.226;2023-03-20T08:53:28;22.63;;;11.07;;
55314;SDS011;41619;42.816;23.226;2023-03-20T08:55:54;22.52;;;11.00;;
55314;SDS011;41619;42.816;23.226;2023-03-20T08:58:20;24.63;;;11.57;;
55314;SDS011;41619;42.816;23.226;2023-03-20T09:00:46;16.00;;;9.40;;
55314;SDS011;41619;42.816;23.226;2023-03-20T09:03:13;19.80;;;11.30;;
55314;SDS011;41619;42.816;23.226;2023-03-20T09:05:44;18.08;;;9.00;;
55314;SDS011;41619;42.816;23.226;2023-03-20T09:08:11;17.63;;;9.38;;
55314;SDS011;41619;42.816;23.226;2023-03-20T09:10:36;14.43;;;8.52;;
55314;SDS011;41619;42.816;23.226;2023-03-20T09:13:02;17.85;;;9.27;;
55314;SDS011;41619;42.816;23.226;2023-03-20T09:15:27;22.95;;;9.55;;
55314;SDS011;41619;42.816;23.226;2023-03-20T09:17:53;14.80;;;9.32;;
55314;SDS011;41619;42.816;23.226;2023-03-20T09:20:19;15.82;;;9.82;;
55314;SDS011;41619;42.816;23.226;2023-03-20T09:22:44;20.50;;;8.80;;
55314;SDS011;41619;42.816;23.226;2023-03-20T09:25:11;17.00;;;8.52;;
55314;SDS011;41619;42.816;23.226;2023-03-20T09:27:37;19.35;;;9.07;;
55314;SDS011;41619;42.816;23.226;2023-03-20T09:30:03;11.63;;;7.53;;
55314;SDS011;41619;42.816;23.226;2023-03-20T09:32:30;12.02;;;8.15;;
55314;SDS011;41619;42.816;23.226;2023-03-20T09:34:55;16.95;;;8.15;;
55314;SDS011;41619;42.816;23.226;2023-03-20T09:37:20;20.73;;;8.50;;
55314;SDS011;41619;42.816;23.226;2023-03-20T09:39:46;17.98;;;7.63;;
55314;SDS011;41619;42.816;23.226;2023-03-20T09:50:34;13.25;;;7.30;;
55314;SDS011;41619;42.816;23.226;2023-03-20T09:53:07;17.23;;;7.80;;
55314;SDS011;41619;42.816;23.226;2023-03-20T09:55:40;20.27;;;9.73;;
55314;SDS011;41619;42.816;23.226;2023-03-20T09:58:23;16.27;;;8.00;;
55314;SDS011;41619;42.816;23.226;2023-03-20T10:00:57;17.23;;;8.00;;
55314;SDS011;41619;42.816;23.226;2023-03-20T10:04:10;19.85;;;7.65;;
55314;SDS011;41619;42.816;23.226;2023-03-20T10:06:21;17.70;;;7.40;;
55314;SDS011;41619;42.816;23.226;2023-03-20T10:08:47;21.70;;;7.88;;
55314;SDS011;41619;42.816;23.226;2023-03-20T10:19:24;17.33;;;7.65;;
55314;SDS011;41619;42.816;23.226;2023-03-20T10:22:01;11.02;;;7.03;;
55314;SDS011;41619;42.816;23.226;2023-03-20T10:24:45;17.08;;;6.65;;
55314;SDS011;41619;42.816;23.226;2023-03-20T10:27:21;15.18;;;7.68;;
55314;SDS011;41619;42.816;23.226;2023-03-20T10:32:24;15.27;;;7.00;;
55314;SDS011;41619;42.816;23.226;2023-03-20T10:35:03;10.75;;;6.40;;
55314;SDS011;41619;42.816;23.226;2023-03-20T10:37:52;20.35;;;7.03;;
55314;SDS011;41619;42.816;23.226;2023-03-20T10:40:29;17.08;;;8.65;;
55314;SDS011;41619;42.816;23.226;2023-03-20T10:43:17;11.68;;;6.72;;
55314;SDS011;41619;42.816;23.226;2023-03-20T10:45:47;28.90;;;11.07;;
55314;SDS011;41619;42.816;23.226;2023-03-20T10:48:16;17.55;;;9.27;;
55314;SDS011;41619;42.816;23.226;2023-03-20T10:50:56;10.90;;;7.00;;
55314;SDS011;41619;42.816;23.226;2023-03-20T10:53:26;13.70;;;6.82;;
55314;SDS011;41619;42.816;23.226;2023-03-20T10:55:56;11.88;;;5.95;;
55314;SDS011;41619;42.816;23.226;2023-03-20T10:58:25;12.18;;;6.10;;
55314;SDS011;41619;42.816;23.226;2023-03-20T11:00:54;15.43;;;6.70;;
55314;SDS011;41619;42.816;23.226;2023-03-20T11:03:22;8.27;;;5.30;;
55314;SDS011;41619;42.816;23.226;2023-03-20T11:05:52;9.70;;;5.15;;
55314;SDS011;41619;42.816;23.226;2023-03-20T11:08:23;13.75;;;6.00;;
55314;SDS011;41619;42.816;23.226;2023-03-20T11:10:59;13.80;;;5.93;;
55314;SDS011;41619;42.816;23.226;2023-03-20T11:13:28;10.20;;;5.60;;
55314;SDS011;41619;42.816;23.226;2023-03-20T11:18:20;9.30;;;5.18;;
55314;SDS011;41619;42.816;23.226;2023-03-20T11:20:55;10.38;;;5.55;;
55314;SDS011;41619;42.816;23.226;2023-03-20T11:23:54;16.02;;;6.65;;
55314;SDS011;41619;42.816;23.226;2023-03-20T11:26:14;9.07;;;5.55;;
55314;SDS011;41619;42.816;23.226;2023-03-20T11:28:49;8.32;;;4.65;;
55314;SDS011;41619;42.816;23.226;2023-03-20T11:31:59;9.60;;;4.75;;
55314;SDS011;41619;42.816;23.226;2023-03-20T11:36:31;7.35;;;4.97;;
55314;SDS011;41619;42.816;23.226;2023-03-20T11:39:11;11.02;;;4.78;;
55314;SDS011;41619;42.816;23.226;2023-03-20T11:41:41;10.02;;;5.35;;
55314;SDS011;41619;42.816;23.226;2023-03-20T11:49:23;13.48;;;4.88;;
55314;SDS011;41619;42.816;23.226;2023-03-20T11:51:51;7.07;;;4.18;;
55314;SDS011;41619;42.816;23.226;2023-03-20T11:54:20;14.15;;;4.18;;
55314;SDS011;41619;42.816;23.226;2023-03-20T11:56:53;7.97;;;4.25;;
55314;SDS011;41619;42.816;23.226;2023-03-20T11:59:20;6.65;;;4.20;;
55314;SDS011;41619;42.816;23.226;2023-03-20T12:01:49;6.40;;;4.10;;
55314;SDS011;41619;42.816;23.226;2023-03-20T12:04:18;6.07;;;4.28;;
55314;SDS011;41619;42.816;23.226;2023-03-20T12:06:54;6.47;;;3.95;;
55314;SDS011;41619;42.816;23.226;2023-03-20T12:12:07;5.82;;;4.18;;
55314;SDS011;41619;42.816;23.226;2023-03-20T12:17:34;13.88;;;4.03;;
55314;SDS011;41619;42.816;23.226;2023-03-20T12:22:36;6.63;;;3.75;;
55314;SDS011;41619;42.816;23.226;2023-03-20T12:25:26;6.18;;;3.40;;
55314;SDS011;41619;42.816;23.226;2023-03-20T12:28:00;12.45;;;3.67;;
55314;SDS011;41619;42.816;23.226;2023-03-20T12:30:31;5.95;;;3.63;;
55314;SDS011;41619;42.816;23.226;2023-03-20T12:33:26;6.65;;;3.35;;
55314;SDS011;41619;42.816;23.226;2023-03-20T12:35:55;8.13;;;3.75;;
55314;SDS011;41619;42.816;23.226;2023-03-20T12:38:26;8.57;;;4.20;;
55314;SDS011;41619;42.816;23.226;2023-03-20T12:40:54;6.22;;;3.38;;
55314;SDS011;41619;42.816;23.226;2023-03-20T12:43:29;6.40;;;3.90;;
55314;SDS011;41619;42.816;23.226;2023-03-20T12:49:03;7.18;;;3.90;;
55314;SDS011;41619;42.816;23.226;2023-03-20T12:54:48;16.75;;;4.72;;
55314;SDS011;41619;42.816;23.226;2023-03-20T13:15:56;14.60;;;8.40;;
55314;SDS011;41619;42.816;23.226;2023-03-20T13:21:30;5.35;;;2.90;;
55314;SDS011;41619;42.816;23.226;2023-03-20T13:29:34;13.10;;;5.50;;
55314;SDS011;41619;42.816;23.226;2023-03-20T13:32:12;8.02;;;4.25;;
55314;SDS011;41619;42.816;23.226;2023-03-20T13:39:47;47.28;;;20.08;;
55314;SDS011;41619;42.816;23.226;2023-03-20T13:42:33;14.25;;;5.63;;
55314;SDS011;41619;42.816;23.226;2023-03-20T13:45:04;15.48;;;3.85;;
55314;SDS011;41619;42.816;23.226;2023-03-20T13:47:37;5.82;;;3.40;;
55314;SDS011;41619;42.816;23.226;2023-03-20T13:52:45;6.93;;;3.45;;
55314;SDS011;41619;42.816;23.226;2023-03-20T14:01:17;5.63;;;3.00;;
55314;SDS011;41619;42.816;23.226;2023-03-20T14:04:08;6.28;;;3.22;;
55314;SDS011;41619;42.816;23.226;2023-03-20T14:11:55;9.00;;;3.15;;
55314;SDS011;41619;42.816;23.226;2023-03-20T14:14:28;8.77;;;3.55;;
55314;SDS011;41619;42.816;23.226;2023-03-20T14:17:02;10.60;;;4.45;;
55314;SDS011;41619;42.816;23.226;2023-03-20T14:19:33;12.35;;;3.70;;
55314;SDS011;41619;42.816;23.226;2023-03-20T14:22:01;7.93;;;3.75;;
55314;SDS011;41619;42.816;23.226;2023-03-20T14:24:27;7.95;;;3.55;;
55314;SDS011;41619;42.816;23.226;2023-03-20T14:26:54;11.02;;;3.53;;
55314;SDS011;41619;42.816;23.226;2023-03-20T14:32:01;7.13;;;3.72;;
55314;SDS011;41619;42.816;23.226;2023-03-20T14:34:30;7.10;;;2.95;;
55314;SDS011;41619;42.816;23.226;2023-03-20T14:37:28;7.20;;;3.80;;
55314;SDS011;41619;42.816;23.226;2023-03-20T14:40:04;7.18;;;3.47;;
55314;SDS011;41619;42.816;23.226;2023-03-20T14:48:13;12.32;;;3.70;;
55314;SDS011;41619;42.816;23.226;2023-03-20T14:53:30;6.38;;;3.33;;
55314;SDS011;41619;42.816;23.226;2023-03-20T15:01:04;10.75;;;3.92;;
55314;SDS011;41619;42.816;23.226;2023-03-20T15:03:38;7.78;;;3.80;;
55314;SDS011;41619;42.816;23.226;2023-03-20T15:06:06;47.25;;;5.80;;
55314;SDS011;41619;42.816;23.226;2023-03-20T15:08:34;17.65;;;4.40;;
55314;SDS011;41619;42.816;23.226;2023-03-20T15:11:06;48.00;;;5.50;;
55314;SDS011;41619;42.816;23.226;2023-03-20T15:13:35;63.88;;;5.75;;
55314;SDS011;41619;42.816;23.226;2023-03-20T15:16:06;81.28;;;5.90;;
55314;SDS011;41619;42.816;23.226;2023-03-20T15:18:41;58.75;;;5.72;;
55314;SDS011;41619;42.816;23.226;2023-03-20T15:21:26;63.60;;;11.65;;
55314;SDS011;41619;42.816;23.226;2023-03-20T15:24:02;39.97;;;7.10;;
55314;SDS011;41619;42.816;23.226;2023-03-20T15:26:29;48.67;;;21.60;;
55314;SDS011;41619;42.816;23.226;2023-03-20T15:29:04;58.08;;;22.35;;
55314;SDS011;41619;42.816;23.226;2023-03-20T15:31:33;72.82;;;17.83;;
55314;SDS011;41619;42.816;23.226;2023-03-20T15:34:02;49.50;;;12.00;;
55314;SDS011;41619;42.816;23.226;2023-03-20T15:36:31;33.72;;;12.43;;
55314;SDS011;41619;42.816;23.226;2023-03-20T15:39:06;43.40;;;10.95;;
55314;SDS011;41619;42.816;23.226;2023-03-20T15:41:33;52.90;;;17.80;;
55314;SDS011;41619;42.816;23.226;2023-03-20T15:44:14;42.55;;;13.77;;
55314;SDS011;41619;42.816;23.226;2023-03-20T15:46:58;31.77;;;9.15;;
55314;SDS011;41619;42.816;23.226;2023-03-20T15:49:27;44.53;;;8.70;;
55314;SDS011;41619;42.816;23.226;2023-03-20T15:51:55;43.15;;;7.88;;
55314;SDS011;41619;42.816;23.226;2023-03-20T15:54:24;83.60;;;12.88;;
55314;SDS011;41619;42.816;23.226;2023-03-20T15:56:50;124.10;;;35.13;;
55314;SDS011;41619;42.816;23.226;2023-03-20T15:59:19;106.85;;;39.95;;
55314;SDS011;41619;42.816;23.226;2023-03-20T16:01:48;68.53;;;21.20;;
55314;SDS011;41619;42.816;23.226;2023-03-20T16:04:16;65.32;;;20.20;;
55314;SDS011;41619;42.816;23.226;2023-03-20T16:06:44;33.63;;;14.00;;
55314;SDS011;41619;42.816;23.226;2023-03-20T16:09:12;39.85;;;11.95;;
55314;SDS011;41619;42.816;23.226;2023-03-20T16:14:28;40.47;;;13.35;;
55314;SDS011;41619;42.816;23.226;2023-03-20T16:16:55;34.80;;;11.30;;
55314;SDS011;41619;42.816;23.226;2023-03-20T16:19:24;38.15;;;11.65;;
55314;SDS011;41619;42.816;23.226;2023-03-20T16:24:28;113.88;;;39.47;;
55314;SDS011;41619;42.816;23.226;2023-03-20T16:26:58;95.10;;;37.55;;
55314;SDS011;41619;42.816;23.226;2023-03-20T16:29:24;158.48;;;56.08;;
55314;SDS011;41619;42.816;23.226;2023-03-20T16:34:24;105.85;;;41.75;;
55314;SDS011;41619;42.816;23.226;2023-03-20T16:36:56;97.00;;;37.47;;
55314;SDS011;41619;42.816;23.226;2023-03-20T16:39:24;103.83;;;40.57;;
55314;SDS011;41619;42.816;23.226;2023-03-20T16:41:56;91.40;;;37.95;;
55314;SDS011;41619;42.816;23.226;2023-03-20T16:44:35;82.63;;;32.58;;
55314;SDS011;41619;42.816;23.226;2023-03-20T16:47:22;59.33;;;30.17;;
55314;SDS011;41619;42.816;23.226;2023-03-20T16:52:34;51.42;;;27.92;;
55314;SDS011;41619;42.816;23.226;2023-03-20T16:55:03;48.97;;;21.98;;
55314;SDS011;41619;42.816;23.226;2023-03-20T16:57:32;75.78;;;29.55;;
55314;SDS011;41619;42.816;23.226;2023-03-20T17:00:41;81.97;;;31.27;;
55314;SDS011;41619;42.816;23.226;2023-03-20T17:05:55;51.65;;;26.52;;
55314;SDS011;41619;42.816;23.226;2023-03-20T17:11:11;45.05;;;26.05;;
55314;SDS011;41619;42.816;23.226;2023-03-20T17:13:38;71.45;;;32.08;;
55314;SDS011;41619;42.816;23.226;2023-03-20T17:16:05;40.72;;;18.30;;